createdAt,value
2022-12-23T00:04:47.481Z,23.00
2022-12-23T00:09:50.673Z,33.50
2022-12-23T00:14:52.382Z,27.60
2022-12-23T00:19:54.150Z,24.23
2022-12-23T00:24:57.272Z,25.10
2022-12-23T00:29:59.021Z,18.90
2022-12-23T00:35:00.710Z,20.25
2022-12-23T00:40:06.984Z,20.65
2022-12-23T00:45:09.635Z,19.48
2022-12-23T00:50:11.610Z,17.60
2022-12-23T00:55:14.862Z,20.58
2022-12-23T01:00:17.071Z,14.25
2022-12-23T01:05:18.960Z,16.62
2022-12-23T01:10:22.086Z,14.35
2022-12-23T01:15:24.243Z,14.95
2022-12-23T01:20:26.000Z,15.13
2022-12-23T01:25:30.266Z,16.17
2022-12-23T01:30:32.098Z,18.10
2022-12-23T01:35:33.825Z,16.62
2022-12-23T01:40:37.188Z,19.90
2022-12-23T01:45:38.974Z,14.52
2022-12-23T01:50:44.652Z,18.75
2022-12-23T01:55:51.794Z,18.98
2022-12-23T02:00:55.609Z,18.92
2022-12-23T02:05:58.340Z,22.33
2022-12-23T02:11:35.370Z,19.75
2022-12-23T02:16:43.629Z,32.00
2022-12-23T02:22:18.478Z,16.05
2022-12-23T02:27:28.299Z,15.57
2022-12-23T02:32:42.213Z,14.73
2022-12-23T02:37:51.535Z,22.52
2022-12-23T02:43:01.338Z,21.10
2022-12-23T02:48:09.017Z,15.23
2022-12-23T02:53:17.710Z,17.25
2022-12-23T02:58:24.499Z,19.75
2022-12-23T03:03:29.124Z,18.60
2022-12-23T03:08:35.621Z,15.73
2022-12-23T03:14:09.541Z,17.52
2022-12-23T03:19:26.016Z,17.17
2022-12-23T03:24:38.402Z,17.50
2022-12-23T03:29:45.615Z,21.95
2022-12-23T03:34:52.163Z,22.00
2022-12-23T03:39:58.663Z,18.77
2022-12-23T03:45:37.036Z,21.92
2022-12-23T03:55:34.913Z,14.95
2022-12-23T04:00:43.960Z,16.52
2022-12-23T04:05:52.267Z,21.48
2022-12-23T04:10:54.394Z,22.65
2022-12-23T04:15:58.046Z,24.45
2022-12-23T04:21:01.190Z,35.53
2022-12-23T04:26:03.094Z,33.22
2022-12-23T04:31:05.036Z,30.30
2022-12-23T04:36:08.256Z,27.23
2022-12-23T04:41:09.980Z,30.73
2022-12-23T04:46:11.754Z,30.20
2022-12-23T04:51:14.874Z,22.52
2022-12-23T04:56:16.605Z,18.70
2022-12-23T05:01:18.383Z,15.07
2022-12-23T05:06:22.076Z,15.13
2022-12-23T05:11:23.900Z,15.18
2022-12-23T05:16:25.946Z,15.05
2022-12-23T05:21:29.231Z,19.77
2022-12-23T05:26:30.912Z,14.30
2022-12-23T05:31:33.191Z,12.95
2022-12-23T05:36:36.306Z,12.40
2022-12-23T05:41:37.987Z,15.80
2022-12-23T05:46:39.786Z,13.13
2022-12-23T05:51:42.982Z,17.37
2022-12-23T05:56:44.646Z,15.00
2022-12-23T06:01:46.411Z,19.27
2022-12-23T06:06:49.604Z,15.73
2022-12-23T06:11:51.301Z,20.62
2022-12-23T06:16:53.037Z,21.20
2022-12-23T06:21:56.105Z,16.98
2022-12-23T06:26:57.806Z,26.70
2022-12-23T06:31:59.490Z,18.62
2022-12-23T06:37:02.661Z,21.75
2022-12-23T06:42:04.451Z,25.02
2022-12-23T06:47:06.193Z,18.73
2022-12-23T06:52:09.738Z,23.20
2022-12-23T06:57:11.571Z,17.52
2022-12-23T07:02:13.425Z,20.58
2022-12-23T07:07:16.557Z,23.87
2022-12-23T07:12:18.234Z,22.17
2022-12-23T07:17:19.854Z,21.27
2022-12-23T07:22:23.023Z,26.20
2022-12-23T07:27:24.709Z,26.45
2022-12-23T07:32:26.437Z,24.83
2022-12-23T07:37:30.245Z,29.98
2022-12-23T07:42:47.380Z,28.67
2022-12-23T07:47:52.298Z,29.10
2022-12-23T07:52:55.666Z,25.10
2022-12-23T07:57:57.359Z,22.40
2022-12-23T08:02:59.170Z,23.90
2022-12-23T08:08:02.361Z,19.83
2022-12-23T08:13:04.015Z,17.70
2022-12-23T08:18:05.799Z,16.15
2022-12-23T08:23:08.881Z,20.80
2022-12-23T08:28:10.608Z,14.98
2022-12-23T08:33:12.279Z,17.10
2022-12-23T08:38:15.382Z,15.82
2022-12-23T08:43:17.157Z,15.27
2022-12-23T08:48:18.951Z,13.20
2022-12-23T08:53:22.129Z,14.20
2022-12-23T08:58:23.858Z,18.35
2022-12-23T09:03:28.200Z,14.70
2022-12-23T09:08:31.467Z,15.10
2022-12-23T09:13:51.208Z,13.80
2022-12-23T09:18:53.172Z,15.90
2022-12-23T09:23:56.293Z,18.00
2022-12-23T09:28:58.254Z,15.70
2022-12-23T09:34:00.025Z,16.60
2022-12-23T09:39:04.133Z,16.25
2022-12-23T09:44:29.642Z,16.27
2022-12-23T09:49:33.592Z,16.12
2022-12-23T09:54:44.256Z,15.40
2022-12-23T09:59:57.824Z,16.12
2022-12-23T10:05:13.858Z,15.68
2022-12-23T10:10:23.763Z,23.83
2022-12-23T10:15:30.742Z,17.45
2022-12-23T10:20:42.766Z,17.08
2022-12-23T10:25:50.490Z,21.73
2022-12-23T10:36:50.397Z,16.95
2022-12-23T10:42:05.288Z,18.70
2022-12-23T10:52:35.698Z,19.10
2022-12-23T10:57:39.925Z,18.62
2022-12-23T11:02:50.624Z,19.15
2022-12-23T11:07:52.583Z,22.85
2022-12-23T11:12:55.813Z,20.10
2022-12-23T11:17:59.615Z,18.67
2022-12-23T11:23:03.558Z,20.27
2022-12-23T11:28:15.316Z,18.73
2022-12-23T11:33:24.730Z,18.95
2022-12-23T11:38:26.638Z,22.73
2022-12-23T11:43:31.748Z,23.08
2022-12-23T11:48:35.223Z,19.12
2022-12-23T11:53:42.345Z,18.42
2022-12-23T11:58:48.648Z,16.45
2022-12-23T12:03:55.938Z,19.37
2022-12-23T12:09:00.071Z,20.42
2022-12-23T12:14:05.323Z,19.12
2022-12-23T12:24:19.268Z,19.73
2022-12-23T12:29:27.221Z,25.42
2022-12-23T12:34:40.225Z,22.55
2022-12-23T12:39:47.034Z,19.40
2022-12-23T12:44:59.526Z,24.42
2022-12-23T12:50:06.408Z,26.52
2022-12-23T12:55:16.685Z,22.58
2022-12-23T13:00:23.146Z,20.17
2022-12-23T13:05:38.423Z,29.58
2022-12-23T13:10:45.506Z,28.83
2022-12-23T13:15:54.437Z,27.60
2022-12-23T13:21:02.605Z,35.42
2022-12-23T13:26:13.969Z,30.50
2022-12-23T13:31:33.553Z,34.63
2022-12-23T13:36:45.567Z,23.85
2022-12-23T13:41:51.640Z,25.98
2022-12-23T13:47:05.106Z,23.65
2022-12-23T13:52:11.726Z,20.58
2022-12-23T13:57:28.476Z,21.45
2022-12-23T14:02:48.800Z,19.85
2022-12-23T14:07:50.677Z,20.60
2022-12-23T14:12:58.836Z,21.37
2022-12-23T14:18:16.423Z,21.50
2022-12-23T14:23:32.172Z,21.73
2022-12-23T14:29:12.601Z,22.83
2022-12-23T14:34:28.907Z,22.00
2022-12-23T14:39:32.043Z,28.33
2022-12-23T14:44:46.584Z,28.95
2022-12-23T14:49:54.360Z,23.73
2022-12-23T14:55:28.431Z,26.10
2022-12-23T15:00:18.585Z,24.80
2022-12-23T15:05:24.081Z,27.60
2022-12-23T15:10:27.124Z,28.05
2022-12-23T15:15:30.116Z,28.80
2022-12-23T15:20:33.575Z,27.40
2022-12-23T15:26:04.572Z,27.10
2022-12-23T15:31:17.923Z,30.65
2022-12-23T15:36:28.657Z,26.92
2022-12-23T15:41:30.674Z,23.67
2022-12-23T15:46:32.520Z,30.17
2022-12-23T15:57:04.272Z,21.98
2022-12-23T16:07:44.647Z,18.10
2022-12-23T16:12:50.047Z,17.48
2022-12-23T16:23:00.425Z,16.35
2022-12-23T16:28:04.931Z,14.10
2022-12-23T16:33:21.920Z,13.47
2022-12-23T16:38:26.329Z,12.93
2022-12-23T16:43:28.023Z,13.47
2022-12-23T16:48:32.306Z,13.32
2022-12-23T16:53:35.394Z,13.55
2022-12-23T16:58:37.172Z,13.93
2022-12-23T17:03:38.924Z,12.25
2022-12-23T17:08:42.822Z,13.20
2022-12-23T17:13:45.161Z,11.63
2022-12-23T17:18:47.200Z,10.85
2022-12-23T17:23:50.799Z,11.27
2022-12-23T17:28:52.521Z,11.27
2022-12-23T17:33:54.484Z,11.07
2022-12-23T17:38:57.700Z,10.02
2022-12-23T17:44:00.861Z,9.82
2022-12-23T17:49:02.512Z,11.57
2022-12-23T17:54:06.286Z,11.48
2022-12-23T17:59:07.945Z,10.55
2022-12-23T18:04:09.699Z,10.43
2022-12-23T18:09:12.886Z,10.70
2022-12-23T18:14:19.365Z,11.02
2022-12-23T18:19:21.510Z,12.35
2022-12-23T18:24:25.972Z,15.13
2022-12-23T18:29:27.723Z,11.60
2022-12-23T18:34:29.441Z,10.88
2022-12-23T18:39:32.770Z,13.68
2022-12-23T18:44:34.599Z,11.05
2022-12-23T18:49:36.689Z,10.73
2022-12-23T18:54:39.912Z,13.57
2022-12-23T18:59:41.649Z,10.88
2022-12-23T19:04:43.542Z,11.75
2022-12-23T19:09:46.622Z,12.18
2022-12-23T19:14:48.368Z,11.90
2022-12-23T19:19:50.140Z,13.38
2022-12-23T19:25:05.396Z,17.27
2022-12-23T19:30:10.511Z,11.15
2022-12-23T19:35:13.824Z,12.30
2022-12-23T19:40:17.104Z,12.55
2022-12-23T19:45:18.982Z,12.73
2022-12-23T19:50:20.753Z,12.02
2022-12-23T19:55:23.989Z,12.35
2022-12-23T20:00:25.923Z,12.60
2022-12-23T20:05:28.181Z,13.30
2022-12-23T20:10:31.393Z,17.73
2022-12-23T20:15:33.256Z,11.98
2022-12-23T20:20:35.048Z,16.27
2022-12-23T20:25:38.203Z,12.82
2022-12-23T20:30:40.055Z,13.55
2022-12-23T20:35:41.968Z,14.00
2022-12-23T20:40:45.317Z,11.60
2022-12-23T20:57:51.509Z,15.20
2022-12-23T21:08:54.028Z,16.75
2022-12-23T21:14:02.576Z,16.27
2022-12-23T21:19:10.882Z,22.70
2022-12-23T21:24:13.285Z,26.67
2022-12-23T21:29:16.993Z,24.77
2022-12-23T21:34:21.960Z,20.30
2022-12-23T21:39:23.723Z,18.83
2022-12-23T21:44:26.953Z,19.15
2022-12-23T21:49:28.745Z,16.62
2022-12-23T21:54:30.530Z,21.48
2022-12-23T21:59:35.464Z,11.70
2022-12-23T22:04:37.465Z,21.35
2022-12-23T22:09:39.418Z,9.90
2022-12-23T22:14:42.649Z,13.23
2022-12-23T22:19:44.421Z,23.35
2022-12-23T22:24:49.219Z,10.63
2022-12-23T22:29:52.558Z,18.33
2022-12-23T22:34:54.312Z,11.57
2022-12-23T22:39:56.050Z,12.98
2022-12-23T22:44:59.290Z,19.55
2022-12-23T22:50:01.334Z,17.23
2022-12-23T22:55:03.976Z,17.50
2022-12-23T23:00:49.123Z,12.55
2022-12-23T23:05:59.185Z,19.90
2022-12-23T23:11:03.470Z,18.83
2022-12-23T23:16:07.350Z,24.00
2022-12-23T23:21:10.915Z,15.30
2022-12-23T23:26:13.043Z,19.15
2022-12-23T23:31:41.299Z,15.65
2022-12-23T23:36:38.029Z,17.10
2022-12-23T23:41:40.256Z,13.70
2022-12-23T23:46:44.642Z,12.98
2022-12-23T23:51:46.352Z,16.83
2022-12-23T23:56:48.054Z,13.90
